createdAt,value
2022-12-20T00:00:34.403Z,999.16
2022-12-20T00:01:34.491Z,999.15
2022-12-20T00:02:33.564Z,999.15
2022-12-20T00:03:36.385Z,999.08
2022-12-20T00:04:33.921Z,999.11
2022-12-20T00:05:34.659Z,999.15
2022-12-20T00:06:35.419Z,999.09
2022-12-20T00:07:34.343Z,999.08
2022-12-20T00:08:34.424Z,999.12
2022-12-20T00:09:34.373Z,999.13
2022-12-20T00:10:36.383Z,999.09
2022-12-20T00:11:33.919Z,999.15
2022-12-20T00:12:33.928Z,999.12
2022-12-20T00:13:33.848Z,999.10
2022-12-20T00:14:34.896Z,999.13
2022-12-20T00:15:34.908Z,999.08
2022-12-20T00:16:32.422Z,999.09
2022-12-20T00:17:33.006Z,999.05
2022-12-20T00:18:33.382Z,999.02
2022-12-20T00:19:36.394Z,999.05
2022-12-20T00:20:33.571Z,999.03
2022-12-20T00:21:32.836Z,999.07
2022-12-20T00:22:35.430Z,999.01
2022-12-20T00:23:33.411Z,999.04
2022-12-20T00:24:34.405Z,999.06
2022-12-20T00:25:33.342Z,999.09
2022-12-20T00:26:34.421Z,999.06
2022-12-20T00:27:35.343Z,999.07
2022-12-20T00:28:34.848Z,998.94
2022-12-20T00:29:33.914Z,998.96
2022-12-20T00:30:32.902Z,998.94
2022-12-20T00:31:34.355Z,998.99
2022-12-20T00:32:34.884Z,999.00
2022-12-20T00:33:34.343Z,998.97
2022-12-20T00:34:39.498Z,998.85
2022-12-20T00:35:34.857Z,998.90
2022-12-20T00:36:34.868Z,998.94
2022-12-20T00:37:35.839Z,998.96
2022-12-20T00:38:34.352Z,998.92
2022-12-20T00:39:34.929Z,998.93
2022-12-20T00:40:33.404Z,998.92
2022-12-20T00:41:33.387Z,998.92
2022-12-20T00:42:34.847Z,998.98
2022-12-20T00:43:34.382Z,998.95
2022-12-20T00:44:34.385Z,998.91
2022-12-20T00:45:32.409Z,998.99
2022-12-20T00:46:33.936Z,998.97
2022-12-20T00:47:35.377Z,998.99
2022-12-20T00:48:33.916Z,998.98
2022-12-20T00:49:33.843Z,998.95
2022-12-20T00:50:34.346Z,998.92
2022-12-20T00:51:36.351Z,998.95
2022-12-20T00:52:34.862Z,999.02
2022-12-20T00:53:33.843Z,998.95
2022-12-20T00:54:32.347Z,998.99
2022-12-20T00:55:32.430Z,998.98
2022-12-20T00:56:33.342Z,999.03
2022-12-20T00:57:33.931Z,999.03
2022-12-20T00:58:33.385Z,998.97
2022-12-20T00:59:33.275Z,998.91
2022-12-20T01:00:34.982Z,998.93
2022-12-20T01:01:36.048Z,998.88
2022-12-20T01:02:35.535Z,998.94
2022-12-20T01:03:32.476Z,998.88
2022-12-20T01:04:33.426Z,998.92
2022-12-20T01:05:32.595Z,998.87
2022-12-20T01:06:34.405Z,998.90
2022-12-20T01:07:34.345Z,998.87
2022-12-20T01:08:34.391Z,998.87
2022-12-20T01:09:33.444Z,998.75
2022-12-20T01:10:32.896Z,998.81
2022-12-20T01:11:33.379Z,998.77
2022-12-20T01:12:32.595Z,998.79
2022-12-20T01:13:35.365Z,998.73
2022-12-20T01:14:34.346Z,998.79
2022-12-20T01:15:32.926Z,998.78
2022-12-20T01:16:33.905Z,998.75
2022-12-20T01:17:33.916Z,998.70
2022-12-20T01:18:35.349Z,998.66
2022-12-20T01:19:33.350Z,998.58
2022-12-20T01:20:32.849Z,998.62
2022-12-20T01:21:35.875Z,998.57
2022-12-20T01:22:42.400Z,998.53
2022-12-20T01:23:34.416Z,998.55
2022-12-20T01:24:33.864Z,998.54
2022-12-20T01:25:35.347Z,998.49
2022-12-20T01:26:35.348Z,998.57
2022-12-20T01:27:33.083Z,998.58
2022-12-20T01:28:34.848Z,998.55
2022-12-20T01:29:32.921Z,998.53
2022-12-20T01:30:34.844Z,998.52
2022-12-20T01:31:34.953Z,998.49
2022-12-20T01:32:33.411Z,998.50
2022-12-20T01:33:33.848Z,998.45
2022-12-20T01:34:34.860Z,998.44
2022-12-20T01:35:32.849Z,998.42
2022-12-20T01:36:33.853Z,998.44
2022-12-20T01:37:32.369Z,998.38
2022-12-20T01:38:33.914Z,998.40
2022-12-20T01:39:32.078Z,998.46
2022-12-20T01:40:34.848Z,998.48
2022-12-20T01:41:32.849Z,998.51
2022-12-20T01:42:33.381Z,998.47
2022-12-20T01:43:34.371Z,998.50
2022-12-20T01:44:33.909Z,998.50
2022-12-20T01:45:34.397Z,998.52
2022-12-20T01:46:35.457Z,998.49
2022-12-20T01:47:33.352Z,998.43
2022-12-20T01:48:31.927Z,998.38
2022-12-20T01:49:33.348Z,998.46
2022-12-20T01:50:33.594Z,998.53
2022-12-20T01:51:32.581Z,998.46
2022-12-20T01:52:31.055Z,998.48
2022-12-20T01:53:31.063Z,998.42
2022-12-20T01:54:31.040Z,998.43
2022-12-20T01:55:31.040Z,998.49
2022-12-20T01:56:31.026Z,998.50
2022-12-20T01:57:31.005Z,998.56
2022-12-20T01:58:31.050Z,998.50
2022-12-20T01:59:31.009Z,998.59
2022-12-20T02:00:30.981Z,998.46
2022-12-20T02:01:31.033Z,998.44
2022-12-20T02:02:31.050Z,998.30
2022-12-20T02:03:31.093Z,998.35
2022-12-20T02:04:30.976Z,998.24
2022-12-20T02:05:30.963Z,998.30
2022-12-20T02:06:30.932Z,998.27
2022-12-20T02:07:30.930Z,998.36
2022-12-20T02:08:30.940Z,998.41
2022-12-20T02:09:30.908Z,998.38
2022-12-20T02:10:30.910Z,998.39
2022-12-20T02:11:30.895Z,998.41
2022-12-20T02:12:30.889Z,998.35
2022-12-20T02:13:30.950Z,998.38
2022-12-20T02:14:30.875Z,998.34
2022-12-20T02:15:30.872Z,998.24
2022-12-20T02:16:30.890Z,998.26
2022-12-20T02:17:30.857Z,998.25
2022-12-20T02:18:30.879Z,998.20
2022-12-20T02:19:30.834Z,998.18
2022-12-20T02:20:30.832Z,998.23
2022-12-20T02:21:30.821Z,998.27
2022-12-20T02:22:30.814Z,998.24
2022-12-20T02:23:30.839Z,998.22
2022-12-20T02:24:30.802Z,998.15
2022-12-20T02:25:30.792Z,998.17
2022-12-20T02:26:30.808Z,998.14
2022-12-20T02:27:30.790Z,998.15
2022-12-20T02:28:30.784Z,998.17
2022-12-20T02:29:30.762Z,998.19
2022-12-20T02:30:30.750Z,998.14
2022-12-20T02:31:30.766Z,998.18
2022-12-20T02:32:30.737Z,998.12
2022-12-20T02:33:30.756Z,998.05
2022-12-20T02:34:30.717Z,998.04
2022-12-20T02:35:31.575Z,998.01
2022-12-20T02:36:30.712Z,998.03
2022-12-20T02:37:30.700Z,998.08
2022-12-20T02:38:30.730Z,998.04
2022-12-20T02:39:30.682Z,998.05
2022-12-20T02:40:30.672Z,998.00
2022-12-20T02:41:30.663Z,997.94
2022-12-20T02:42:30.671Z,997.94
2022-12-20T02:43:30.675Z,997.99
2022-12-20T02:44:30.644Z,998.07
2022-12-20T02:45:30.630Z,998.07
2022-12-20T02:46:30.677Z,998.24
2022-12-20T02:47:30.614Z,998.18
2022-12-20T02:48:30.640Z,998.15
2022-12-20T02:49:30.608Z,998.13
2022-12-20T02:50:30.613Z,998.09
2022-12-20T02:51:30.588Z,998.07
2022-12-20T02:52:30.578Z,998.13
2022-12-20T02:53:30.596Z,998.11
2022-12-20T02:54:30.567Z,998.05
2022-12-20T02:55:30.571Z,998.15
2022-12-20T02:56:30.559Z,998.04
2022-12-20T02:57:30.550Z,998.05
2022-12-20T02:58:30.564Z,998.09
2022-12-20T02:59:30.539Z,998.15
2022-12-20T03:00:30.517Z,998.22
2022-12-20T03:01:30.680Z,998.21
2022-12-20T03:02:30.719Z,998.12
2022-12-20T03:03:30.581Z,998.04
2022-12-20T03:04:30.492Z,998.05
2022-12-20T03:05:30.480Z,997.96
2022-12-20T03:06:30.479Z,997.97
2022-12-20T03:07:30.471Z,997.90
2022-12-20T03:08:30.503Z,997.78
2022-12-20T03:09:30.472Z,997.79
2022-12-20T03:10:30.444Z,997.91
2022-12-20T03:11:30.436Z,997.92
2022-12-20T03:12:30.436Z,998.01
2022-12-20T03:13:30.460Z,998.04
2022-12-20T03:14:30.427Z,998.00
2022-12-20T03:15:30.409Z,998.03
2022-12-20T03:16:30.449Z,998.05
2022-12-20T03:17:30.392Z,998.01
2022-12-20T03:18:30.412Z,997.96
2022-12-20T03:19:30.382Z,998.00
2022-12-20T03:20:30.383Z,997.97
2022-12-20T03:21:30.361Z,997.92
2022-12-20T03:22:30.347Z,997.91
2022-12-20T03:23:30.370Z,997.91
2022-12-20T03:24:30.340Z,997.91
2022-12-20T03:25:30.332Z,997.91
2022-12-20T03:26:30.330Z,997.89
2022-12-20T03:27:30.337Z,997.89
2022-12-20T03:28:30.395Z,997.79
2022-12-20T03:29:30.297Z,997.85
2022-12-20T03:30:30.310Z,997.87
2022-12-20T03:31:30.372Z,997.86
2022-12-20T03:32:30.279Z,997.86
2022-12-20T03:33:30.268Z,997.80
2022-12-20T03:34:30.293Z,997.81
2022-12-20T03:35:30.252Z,997.70
2022-12-20T03:36:30.246Z,997.74
2022-12-20T03:37:30.237Z,997.66
2022-12-20T03:38:30.234Z,997.73
2022-12-20T03:39:30.269Z,997.83
2022-12-20T03:40:30.206Z,997.80
2022-12-20T03:41:30.215Z,997.81
2022-12-20T03:42:30.220Z,997.76
2022-12-20T03:43:30.215Z,997.79
2022-12-20T03:44:30.276Z,997.85
2022-12-20T03:45:30.183Z,997.90
2022-12-20T03:46:30.241Z,997.82
2022-12-20T03:47:30.167Z,997.79
2022-12-20T03:48:30.153Z,997.82
2022-12-20T03:49:30.177Z,997.86
2022-12-20T03:50:30.147Z,997.89
2022-12-20T03:51:30.134Z,997.85
2022-12-20T03:52:30.128Z,997.85
2022-12-20T03:53:30.126Z,997.89
2022-12-20T03:54:30.134Z,997.83
2022-12-20T03:55:30.160Z,997.76
2022-12-20T03:56:30.093Z,997.80
2022-12-20T03:57:30.082Z,997.84
2022-12-20T03:58:30.075Z,997.88
2022-12-20T03:59:30.099Z,997.82
2022-12-20T04:00:30.074Z,997.89
2022-12-20T04:01:30.158Z,997.83
2022-12-20T04:02:31.184Z,997.88
2022-12-20T04:03:30.212Z,997.93
2022-12-20T04:04:30.068Z,997.90
2022-12-20T04:05:30.030Z,997.97
2022-12-20T04:06:30.046Z,997.91
2022-12-20T04:07:30.013Z,997.84
2022-12-20T04:08:30.010Z,997.91
2022-12-20T04:09:30.021Z,997.84
2022-12-20T04:10:29.987Z,997.90
2022-12-20T04:11:29.982Z,997.85
2022-12-20T04:12:29.974Z,997.86
2022-12-20T04:13:29.971Z,997.86
2022-12-20T04:14:29.980Z,997.87
2022-12-20T04:15:30.012Z,997.87
2022-12-20T04:16:30.072Z,997.85
2022-12-20T04:17:29.954Z,997.92
2022-12-20T04:18:29.933Z,997.89
2022-12-20T04:19:29.957Z,997.94
2022-12-20T04:20:29.908Z,997.96
2022-12-20T04:21:29.906Z,997.94
2022-12-20T04:22:29.900Z,997.87
2022-12-20T04:23:29.891Z,997.86
2022-12-20T04:24:29.907Z,997.81
2022-12-20T04:25:29.871Z,997.80
2022-12-20T04:26:29.867Z,997.75
2022-12-20T04:27:29.857Z,997.68
2022-12-20T04:28:29.853Z,997.66
2022-12-20T04:29:29.885Z,997.66
2022-12-20T04:30:29.857Z,997.68
2022-12-20T04:31:29.894Z,997.58
2022-12-20T04:32:29.820Z,997.60
2022-12-20T04:33:29.823Z,997.54
2022-12-20T04:34:29.852Z,997.61
2022-12-20T04:35:29.805Z,997.55
2022-12-20T04:36:29.800Z,997.50
2022-12-20T04:37:29.787Z,997.60
2022-12-20T04:38:29.784Z,997.58
2022-12-20T04:39:29.814Z,997.50
2022-12-20T04:40:29.757Z,997.51
2022-12-20T04:41:29.757Z,997.41
2022-12-20T04:42:29.747Z,997.41
2022-12-20T04:43:29.741Z,997.45
2022-12-20T04:44:29.762Z,997.44
2022-12-20T04:45:29.724Z,997.47
2022-12-20T04:46:29.779Z,997.54
2022-12-20T04:47:29.723Z,997.45
2022-12-20T04:48:55.747Z,997.46
2022-12-20T04:49:31.726Z,997.46
2022-12-20T04:50:29.695Z,997.57
2022-12-20T04:51:29.688Z,997.54
2022-12-20T04:52:29.673Z,997.48
2022-12-20T04:53:29.661Z,997.49
2022-12-20T04:54:29.666Z,997.43
2022-12-20T04:55:29.675Z,997.40
2022-12-20T04:56:29.641Z,997.41
2022-12-20T04:57:29.627Z,997.37
2022-12-20T04:58:29.632Z,997.29
2022-12-20T04:59:29.623Z,997.31
2022-12-20T05:00:29.639Z,997.30
2022-12-20T05:01:29.728Z,997.25
2022-12-20T05:02:29.670Z,997.24
2022-12-20T05:03:29.660Z,997.35
2022-12-20T05:04:35.313Z,997.32
2022-12-20T05:05:31.603Z,997.32
2022-12-20T05:06:29.600Z,997.43
2022-12-20T05:07:29.553Z,997.45
2022-12-20T05:08:30.554Z,997.42
2022-12-20T05:09:29.547Z,997.46
2022-12-20T05:10:29.560Z,997.49
2022-12-20T05:11:29.531Z,997.45
2022-12-20T05:12:29.526Z,997.40
2022-12-20T05:13:29.546Z,997.32
2022-12-20T05:14:29.515Z,997.41
2022-12-20T05:15:29.528Z,997.49
2022-12-20T05:16:29.543Z,997.46
2022-12-20T05:17:29.524Z,997.43
2022-12-20T05:18:29.480Z,997.41
2022-12-20T05:19:29.477Z,997.44
2022-12-20T05:20:29.488Z,997.41
2022-12-20T05:21:29.460Z,997.28
2022-12-20T05:22:29.453Z,997.34
2022-12-20T05:23:29.445Z,997.22
2022-12-20T05:24:29.432Z,997.34
2022-12-20T05:25:29.492Z,997.24
2022-12-20T05:26:29.422Z,997.30
2022-12-20T05:27:29.410Z,997.27
2022-12-20T05:28:29.406Z,997.21
2022-12-20T05:29:29.401Z,997.26
2022-12-20T05:30:30.421Z,997.23
2022-12-20T05:31:29.428Z,997.19
2022-12-20T05:32:29.374Z,997.22
2022-12-20T05:33:34.047Z,997.15
2022-12-20T05:34:31.375Z,997.19
2022-12-20T05:35:29.397Z,997.15
2022-12-20T05:36:29.343Z,997.13
2022-12-20T05:37:29.327Z,997.16
2022-12-20T05:38:29.347Z,997.10
2022-12-20T05:39:30.316Z,997.10
2022-12-20T05:40:29.340Z,997.07
2022-12-20T05:41:29.305Z,997.09
2022-12-20T05:42:29.288Z,997.01
2022-12-20T05:43:29.289Z,996.94
2022-12-20T05:44:29.305Z,997.02
2022-12-20T05:45:29.295Z,996.93
2022-12-20T05:46:29.331Z,997.02
2022-12-20T05:47:29.332Z,996.97
2022-12-20T05:48:29.235Z,996.97
2022-12-20T05:49:29.240Z,996.88
2022-12-20T05:50:29.283Z,996.94
2022-12-20T05:51:29.219Z,996.95
2022-12-20T05:52:29.211Z,996.95
2022-12-20T05:53:29.215Z,996.92
2022-12-20T05:54:29.198Z,996.95
2022-12-20T05:55:29.221Z,997.00
2022-12-20T05:56:29.178Z,996.95
2022-12-20T05:57:29.176Z,997.11
2022-12-20T05:58:29.174Z,997.11
2022-12-20T05:59:29.185Z,997.12
2022-12-20T06:00:29.185Z,997.06
2022-12-20T06:01:29.218Z,997.15
2022-12-20T06:02:29.442Z,997.21
2022-12-20T06:03:29.251Z,997.23
2022-12-20T06:04:29.125Z,997.16
2022-12-20T06:05:29.135Z,997.16
2022-12-20T06:06:29.100Z,997.17
2022-12-20T06:07:29.179Z,997.19
2022-12-20T06:08:29.089Z,997.13
2022-12-20T06:09:29.088Z,997.17
2022-12-20T06:10:29.104Z,997.22
2022-12-20T06:11:30.365Z,997.19
2022-12-20T06:12:30.077Z,997.16
2022-12-20T06:13:29.057Z,997.23
2022-12-20T06:14:29.049Z,997.23
2022-12-20T06:15:29.042Z,997.22
2022-12-20T06:16:29.084Z,997.19
2022-12-20T06:17:29.027Z,997.21
2022-12-20T06:18:29.024Z,997.19
2022-12-20T06:19:29.037Z,997.24
2022-12-20T06:20:29.015Z,997.29
2022-12-20T06:21:29.112Z,997.33
2022-12-20T06:22:28.986Z,997.32
2022-12-20T06:23:28.990Z,997.14
2022-12-20T06:24:28.978Z,997.20
2022-12-20T06:25:28.975Z,997.17
2022-12-20T06:26:28.996Z,997.21
2022-12-20T06:27:28.956Z,997.17
2022-12-20T06:28:28.947Z,997.10
2022-12-20T06:29:28.945Z,997.01
2022-12-20T06:30:33.668Z,997.05
2022-12-20T06:31:31.003Z,997.02
2022-12-20T06:32:28.946Z,996.99
2022-12-20T06:33:28.922Z,996.96
2022-12-20T06:34:28.901Z,997.04
2022-12-20T06:35:28.906Z,997.02
2022-12-20T06:36:28.920Z,997.07
2022-12-20T06:37:28.876Z,997.07
2022-12-20T06:38:28.874Z,997.05
2022-12-20T06:39:28.870Z,997.16
2022-12-20T06:40:28.856Z,997.08
2022-12-20T06:41:28.878Z,996.99
2022-12-20T06:42:28.832Z,997.09
2022-12-20T06:43:28.845Z,996.95
2022-12-20T06:44:28.827Z,996.89
2022-12-20T06:45:28.854Z,996.96
2022-12-20T06:46:28.869Z,996.96
2022-12-20T06:47:28.806Z,997.03
2022-12-20T06:48:28.824Z,997.06
2022-12-20T06:49:28.784Z,997.00
2022-12-20T06:50:28.778Z,997.03
2022-12-20T06:51:28.808Z,996.94
2022-12-20T06:52:28.771Z,997.04
2022-12-20T06:53:28.762Z,997.01
2022-12-20T06:54:28.744Z,997.06
2022-12-20T06:55:28.736Z,997.10
2022-12-20T06:56:28.754Z,997.07
2022-12-20T06:57:28.729Z,997.04
2022-12-20T06:58:28.724Z,997.07
2022-12-20T06:59:28.713Z,997.14
2022-12-20T07:00:28.702Z,997.11
2022-12-20T07:01:28.839Z,997.03
2022-12-20T07:02:28.895Z,997.03
2022-12-20T07:03:28.803Z,997.11
2022-12-20T07:04:29.669Z,997.01
2022-12-20T07:05:28.662Z,996.97
2022-12-20T07:06:28.677Z,996.94
2022-12-20T07:07:28.650Z,996.98
2022-12-20T07:08:28.641Z,997.09
2022-12-20T07:09:28.640Z,997.10
2022-12-20T07:10:28.619Z,997.14
2022-12-20T07:11:28.703Z,997.09
2022-12-20T07:12:28.620Z,997.09
2022-12-20T07:13:28.629Z,997.14
2022-12-20T07:14:28.606Z,997.14
2022-12-20T07:15:28.579Z,997.16
2022-12-20T07:16:29.667Z,997.01
2022-12-20T07:17:28.571Z,997.14
2022-12-20T07:18:28.568Z,997.14
2022-12-20T07:19:28.635Z,997.11
2022-12-20T07:20:28.545Z,997.14
2022-12-20T07:21:28.561Z,997.08
2022-12-20T07:22:28.538Z,997.09
2022-12-20T07:23:28.573Z,997.17
2022-12-20T07:24:28.521Z,997.12
2022-12-20T07:25:28.518Z,997.16
2022-12-20T07:26:28.532Z,997.12
2022-12-20T07:27:28.493Z,997.02
2022-12-20T07:28:28.489Z,996.94
2022-12-20T07:29:28.485Z,996.96
2022-12-20T07:30:28.473Z,996.95
2022-12-20T07:31:28.527Z,996.96
2022-12-20T07:32:28.479Z,997.01
2022-12-20T07:33:28.458Z,997.09
2022-12-20T07:34:28.440Z,997.00
2022-12-20T07:35:28.465Z,997.01
2022-12-20T07:36:28.454Z,997.07
2022-12-20T07:37:28.423Z,997.07
2022-12-20T07:38:28.409Z,997.16
2022-12-20T07:39:28.407Z,997.15
2022-12-20T07:40:28.553Z,997.10
2022-12-20T07:41:28.431Z,997.08
2022-12-20T07:42:36.148Z,997.12
2022-12-20T07:43:29.372Z,997.12
2022-12-20T07:44:28.374Z,997.15
2022-12-20T07:45:28.420Z,997.16
2022-12-20T07:46:28.487Z,997.22
2022-12-20T07:47:28.347Z,997.27
2022-12-20T07:48:28.335Z,997.20
2022-12-20T07:49:28.332Z,997.23
2022-12-20T07:50:28.489Z,997.26
2022-12-20T07:51:29.339Z,997.25
2022-12-20T07:52:28.311Z,997.21
2022-12-20T07:53:28.317Z,997.22
2022-12-20T07:54:28.286Z,997.23
2022-12-20T07:55:29.284Z,997.14
2022-12-20T07:56:28.302Z,997.15
2022-12-20T07:57:28.271Z,997.08
2022-12-20T07:58:28.288Z,997.08
2022-12-20T07:59:28.256Z,997.10
2022-12-20T08:00:28.247Z,997.11
2022-12-20T08:01:28.407Z,997.14
2022-12-20T08:02:28.348Z,997.07
2022-12-20T08:03:28.410Z,997.04
2022-12-20T08:04:28.237Z,996.97
2022-12-20T08:05:28.207Z,996.91
2022-12-20T08:06:28.255Z,996.97
2022-12-20T08:07:28.196Z,996.90
2022-12-20T08:08:28.190Z,996.88
2022-12-20T08:09:28.181Z,996.91
2022-12-20T08:10:28.206Z,996.90
2022-12-20T08:11:28.185Z,996.79
2022-12-20T08:12:28.169Z,996.84
2022-12-20T08:13:28.151Z,996.75
2022-12-20T08:14:28.156Z,996.68
2022-12-20T08:15:28.159Z,996.65
2022-12-20T08:16:28.189Z,996.59
2022-12-20T08:17:29.127Z,996.45
2022-12-20T08:18:28.110Z,996.48
2022-12-20T08:19:32.216Z,996.50
2022-12-20T08:20:29.165Z,996.54
2022-12-20T08:21:28.122Z,996.50
2022-12-20T08:22:28.105Z,996.38
2022-12-20T08:23:28.077Z,996.35
2022-12-20T08:24:28.067Z,996.34
2022-12-20T08:25:28.054Z,996.29
2022-12-20T08:26:28.058Z,996.32
2022-12-20T08:27:28.070Z,996.28
2022-12-20T08:28:28.023Z,996.22
2022-12-20T08:29:29.052Z,996.31
2022-12-20T08:30:28.012Z,996.29
2022-12-20T08:31:28.102Z,996.22
2022-12-20T08:32:28.028Z,996.12
2022-12-20T08:33:28.003Z,996.12
2022-12-20T08:34:27.999Z,996.17
2022-12-20T08:35:27.974Z,996.21
2022-12-20T08:36:27.978Z,996.20
2022-12-20T08:37:28.011Z,996.27
2022-12-20T08:38:27.960Z,996.27
2022-12-20T08:39:27.947Z,996.29
2022-12-20T08:40:27.940Z,996.33
2022-12-20T08:41:27.934Z,996.40
2022-12-20T08:42:27.960Z,996.33
2022-12-20T08:43:27.919Z,996.33
2022-12-20T08:44:27.919Z,996.36
2022-12-20T08:45:27.904Z,996.30
2022-12-20T08:46:27.981Z,996.21
2022-12-20T08:47:27.918Z,996.24
2022-12-20T08:48:27.899Z,996.25
2022-12-20T08:49:27.882Z,996.17
2022-12-20T08:50:27.874Z,996.13
2022-12-20T08:51:27.891Z,996.17
2022-12-20T08:52:27.880Z,996.05
2022-12-20T08:53:27.847Z,996.07
2022-12-20T08:54:27.857Z,996.09
2022-12-20T08:55:27.994Z,996.05
2022-12-20T08:56:28.823Z,996.05
2022-12-20T08:57:27.844Z,996.02
2022-12-20T08:58:27.818Z,996.03
2022-12-20T08:59:27.806Z,996.06
2022-12-20T09:00:27.796Z,995.95
2022-12-20T09:01:27.940Z,996.00
2022-12-20T09:02:27.940Z,996.04
2022-12-20T09:03:27.818Z,996.02
2022-12-20T09:04:27.785Z,995.97
2022-12-20T09:05:27.763Z,995.92
2022-12-20T09:06:27.752Z,996.01
2022-12-20T09:07:27.784Z,995.93
2022-12-20T09:08:27.754Z,995.95
2022-12-20T09:09:27.729Z,996.02
2022-12-20T09:10:27.728Z,995.94
2022-12-20T09:11:27.720Z,996.01
2022-12-20T09:12:27.726Z,996.01
2022-12-20T09:13:27.792Z,996.05
2022-12-20T09:14:27.723Z,996.07
2022-12-20T09:15:27.777Z,995.96
2022-12-20T09:16:27.741Z,996.11
2022-12-20T09:17:27.696Z,996.10
2022-12-20T09:18:27.662Z,996.04
2022-12-20T09:19:27.660Z,996.15
2022-12-20T09:20:27.647Z,996.18
2022-12-20T09:21:27.642Z,996.09
2022-12-20T09:22:27.663Z,996.03
2022-12-20T09:23:27.623Z,996.10
2022-12-20T09:24:27.613Z,996.12
2022-12-20T09:25:27.612Z,996.15
2022-12-20T09:26:27.620Z,996.14
2022-12-20T09:27:27.630Z,996.16
2022-12-20T09:28:27.591Z,996.12
2022-12-20T09:29:35.123Z,996.13
2022-12-20T09:30:29.580Z,996.13
2022-12-20T09:31:27.646Z,996.14
2022-12-20T09:32:27.594Z,996.10
2022-12-20T09:33:27.562Z,996.13
2022-12-20T09:34:27.543Z,996.12
2022-12-20T09:35:27.548Z,996.12
2022-12-20T09:36:27.543Z,996.13
2022-12-20T09:37:29.528Z,996.05
2022-12-20T09:38:27.519Z,996.10
2022-12-20T09:39:27.522Z,996.10
2022-12-20T09:40:27.509Z,996.19
2022-12-20T09:41:27.502Z,996.19
2022-12-20T09:42:27.512Z,996.17
2022-12-20T09:43:27.482Z,996.10
2022-12-20T09:44:27.478Z,996.20
2022-12-20T09:45:27.572Z,996.18
2022-12-20T09:46:27.529Z,996.14
2022-12-20T09:47:27.471Z,996.10
2022-12-20T09:48:27.449Z,996.15
2022-12-20T09:49:27.438Z,996.12
2022-12-20T09:50:27.439Z,996.07
2022-12-20T09:51:27.425Z,996.10
2022-12-20T09:52:27.464Z,996.02
2022-12-20T09:53:27.406Z,996.07
2022-12-20T09:54:27.410Z,996.15
2022-12-20T09:55:27.420Z,996.15
2022-12-20T09:56:27.391Z,996.10
2022-12-20T09:57:27.412Z,996.03
2022-12-20T09:58:27.369Z,995.97
2022-12-20T09:59:27.360Z,996.00
2022-12-20T10:00:27.342Z,995.95
2022-12-20T10:01:32.584Z,995.94
2022-12-20T10:02:57.118Z,995.91
2022-12-20T10:03:29.570Z,995.98
2022-12-20T10:04:27.644Z,995.96
2022-12-20T10:05:27.431Z,996.00
2022-12-20T10:06:27.322Z,995.96
2022-12-20T10:07:27.329Z,996.00
2022-12-20T10:08:27.319Z,996.02
2022-12-20T10:09:27.276Z,995.98
2022-12-20T10:10:27.277Z,995.97
2022-12-20T10:11:29.610Z,996.04
2022-12-20T10:12:28.294Z,995.99
2022-12-20T10:13:27.247Z,995.98
2022-12-20T10:14:27.276Z,995.89
2022-12-20T10:15:27.240Z,995.97
2022-12-20T10:16:27.328Z,995.98
2022-12-20T10:17:32.239Z,995.91
2022-12-20T10:18:29.237Z,995.90
2022-12-20T10:19:27.212Z,995.90
2022-12-20T10:20:27.205Z,995.86
2022-12-20T10:21:27.190Z,995.90
2022-12-20T10:22:27.185Z,995.85
2022-12-20T10:23:33.032Z,995.80
2022-12-20T10:24:29.185Z,995.79
2022-12-20T10:25:27.157Z,995.82
2022-12-20T10:26:27.176Z,995.78
2022-12-20T10:27:27.152Z,995.75
2022-12-20T10:28:27.171Z,995.76
2022-12-20T10:29:27.124Z,995.76
2022-12-20T10:30:27.129Z,995.69
2022-12-20T10:31:27.175Z,995.68
2022-12-20T10:32:27.142Z,995.71
2022-12-20T10:33:27.123Z,995.68
2022-12-20T10:34:31.686Z,995.68
2022-12-20T10:35:29.112Z,995.60
2022-12-20T10:36:27.338Z,995.65
2022-12-20T10:37:27.073Z,995.56
2022-12-20T10:38:27.092Z,995.55
2022-12-20T10:39:27.046Z,995.56
2022-12-20T10:40:46.368Z,995.56
2022-12-20T10:41:29.030Z,995.59
2022-12-20T10:42:27.076Z,995.59
2022-12-20T10:43:27.044Z,995.56
2022-12-20T10:44:27.023Z,995.59
2022-12-20T10:45:32.554Z,995.56
2022-12-20T10:46:29.042Z,995.55
2022-12-20T10:47:26.983Z,995.49
2022-12-20T10:48:27.010Z,995.51
2022-12-20T10:49:26.976Z,995.57
2022-12-20T10:50:26.965Z,995.57
2022-12-20T10:51:26.975Z,995.45
2022-12-20T10:52:26.945Z,995.48
2022-12-20T10:53:27.947Z,995.49
2022-12-20T10:54:27.244Z,995.40
2022-12-20T10:55:26.940Z,995.40
2022-12-20T10:56:26.914Z,995.35
2022-12-20T10:57:26.917Z,995.38
2022-12-20T10:58:26.913Z,995.38
2022-12-20T10:59:26.922Z,995.39
2022-12-20T11:00:26.882Z,995.36
2022-12-20T11:01:26.979Z,995.36
2022-12-20T11:02:29.268Z,995.31
2022-12-20T11:03:28.036Z,995.36
2022-12-20T11:04:26.926Z,995.23
2022-12-20T11:05:26.860Z,995.26
2022-12-20T11:06:26.845Z,995.29
2022-12-20T11:07:26.941Z,995.33
2022-12-20T11:08:40.457Z,995.27
2022-12-20T11:09:28.863Z,995.20
2022-12-20T11:10:26.806Z,995.21
2022-12-20T11:11:26.817Z,995.23
2022-12-20T11:12:26.793Z,995.19
2022-12-20T11:13:27.786Z,995.18
2022-12-20T11:14:26.814Z,995.12
2022-12-20T11:15:34.432Z,995.23
2022-12-20T11:16:27.799Z,995.19
2022-12-20T11:17:26.841Z,995.23
2022-12-20T11:18:26.752Z,995.14
2022-12-20T11:19:26.800Z,995.22
2022-12-20T11:20:26.769Z,995.20
2022-12-20T11:21:28.588Z,995.14
2022-12-20T11:22:27.715Z,995.16
2022-12-20T11:23:26.740Z,995.24
2022-12-20T11:24:26.745Z,995.32
2022-12-20T11:25:26.767Z,995.23
2022-12-20T11:26:26.697Z,995.20
2022-12-20T11:27:26.696Z,995.19
2022-12-20T11:28:26.678Z,995.19
2022-12-20T11:29:26.740Z,995.13
2022-12-20T11:30:26.670Z,995.13
2022-12-20T11:31:27.702Z,995.17
2022-12-20T11:32:26.664Z,995.17
2022-12-20T11:33:26.641Z,995.14
2022-12-20T11:34:26.671Z,995.05
2022-12-20T11:35:26.635Z,995.02
2022-12-20T11:36:26.614Z,994.98
2022-12-20T11:37:26.601Z,994.96
2022-12-20T11:38:26.606Z,994.96
2022-12-20T11:39:26.641Z,994.95
2022-12-20T11:40:26.584Z,994.87
2022-12-20T11:41:26.590Z,994.88
2022-12-20T11:42:26.594Z,994.86
2022-12-20T11:43:26.575Z,994.82
2022-12-20T11:44:27.406Z,994.85
2022-12-20T11:45:27.572Z,994.80
2022-12-20T11:46:26.589Z,994.79
2022-12-20T11:47:26.549Z,994.75
2022-12-20T11:48:26.522Z,994.69
2022-12-20T11:49:26.520Z,994.78
2022-12-20T11:50:26.529Z,994.72
2022-12-20T11:51:27.263Z,994.75
2022-12-20T11:52:27.505Z,994.67
2022-12-20T11:53:26.491Z,994.67
2022-12-20T11:54:26.475Z,994.72
2022-12-20T11:55:26.510Z,994.70
2022-12-20T11:56:26.471Z,994.70
2022-12-20T11:57:26.468Z,994.76
2022-12-20T11:58:26.435Z,994.73
2022-12-20T11:59:26.502Z,994.73
2022-12-20T12:00:26.456Z,994.71
2022-12-20T12:01:26.485Z,994.73
2022-12-20T12:02:26.532Z,994.71
2022-12-20T12:03:26.536Z,994.67
2022-12-20T12:04:26.397Z,994.74
2022-12-20T12:05:26.472Z,994.74
2022-12-20T12:06:26.391Z,994.67
2022-12-20T12:07:26.383Z,994.66
2022-12-20T12:08:26.407Z,994.68
2022-12-20T12:09:26.364Z,994.71
2022-12-20T12:10:26.381Z,994.66
2022-12-20T12:12:04.535Z,994.73
2022-12-20T12:12:28.346Z,994.77
2022-12-20T12:13:26.334Z,994.79
2022-12-20T12:14:26.326Z,994.78
2022-12-20T12:15:26.334Z,994.75
2022-12-20T12:16:26.375Z,994.74
2022-12-20T12:17:26.319Z,994.71
2022-12-20T12:18:26.299Z,994.79
2022-12-20T12:19:26.347Z,994.77
2022-12-20T12:20:26.303Z,994.76
2022-12-20T12:21:26.296Z,994.72
2022-12-20T12:22:26.316Z,994.76
2022-12-20T12:23:26.285Z,994.66
2022-12-20T12:24:26.268Z,994.65
2022-12-20T12:25:26.272Z,994.66
2022-12-20T12:26:26.258Z,994.58
2022-12-20T12:27:26.242Z,994.60
2022-12-20T12:28:26.258Z,994.60